Sct Santiago — V7NF7 — position and weather

sailwx.info

Track history (hours):
 
Tides and Currents Weather Stations Pressure Air Temp Water Temp Dewpoint Dewpoint Depression Visibility Wind Speed Wind Dir Waves Ship Positions

Sct Santiago

Last reported at 2014-Oct-21 14:33 UTC. Time now 2014-Oct-21 15:15 UTC.
Position N 37°56' W 008°51'.

Length 294 m; draft 10.9 m.

Type: Cargo ship. MMSI: 538002953.

Date/timePositionNaut miles runAvg speedWind from/ knotsBaromVisibWave heightAir tempDewpointWater temp
2014-Oct-21 14:33N 37°56' W 008°51'0 0.0
2014-Oct-21 13:33N 37°56' W 008°51'0 0.0
2014-Oct-21 12:33N 37°56' W 008°51'0 0.0
2014-Oct-21 11:33N 37°56' W 008°51'0 0.0
2014-Oct-21 10:33N 37°56' W 008°51'0 0.0
2014-Oct-21 09:33N 37°56' W 008°51'0 0.0
2014-Oct-21 08:33N 37°56' W 008°51'0 0.0
2014-Oct-21 07:33N 37°56' W 008°51'0 0.4
2014-Oct-21 06:33N 37°56' W 008°51'7 6.7
2014-Oct-21 05:33N 37°58' W 008°59'1615.7
2014-Oct-21 04:33N 38°06' W 009°15'1717.6
2014-Oct-21 03:33N 38°17' W 009°33'1717.2
2014-Oct-21 02:33N 38°27' W 009°51'1616.0
2014-Oct-21 01:33N 38°38' W 010°06'1716.5
2014-Oct-21 00:31N 38°55' W 010°07'1717.3
2014-Oct-20 23:33N 39°12' W 010°07'77716.1
2014-Oct-18 23:21N 50°19' W 000°48'1618.3
2014-Oct-18 22:30N 50°24' W 000°25'6917.5
2014-Oct-18 18:33N 50°52' E 001°14'1717.3
2014-Oct-18 17:34N 51°05' E 001°33'1717.2
2014-Oct-18 16:34N 51°17' E 001°51'1615.8
2014-Oct-18 15:33N 51°21' E 002°16'1817.9
2014-Oct-18 14:33N 51°24' E 002°44'1917.3
2014-Oct-18 13:27N 51°25' E 003°15'1416.1
2014-Oct-18 12:34N 51°26' E 003°38'1212.4
2014-Oct-18 11:33N 51°23' E 003°57'10 9.6
2014-Oct-18 10:34N 51°24' E 004°12'5 4.6
2014-Oct-18 09:34N 51°21' E 004°17'0 0.0
2014-Oct-18 08:33N 51°21' E 004°17'1 0.6
2014-Oct-18 07:32N 51°20' E 004°18'2 1.5
2014-Oct-18 06:28N 51°20' E 004°20'0 0.0
2014-Oct-18 05:31N 51°20' E 004°20'0 0.0
2014-Oct-18 04:31N 51°20' E 004°20'0 0.0
2014-Oct-18 03:25N 51°20' E 004°20'0 0.0
2014-Oct-18 02:31N 51°20' E 004°20'0 0.0
2014-Oct-18 01:31N 51°20' E 004°20'0 0.0
2014-Oct-18 00:31N 51°20' E 004°20'0 0.0
2014-Oct-17 23:31N 51°20' E 004°20'0 0.0
2014-Oct-17 22:31N 51°20' E 004°20'0 0.0
2014-Oct-17 21:31N 51°20' E 004°20'0 0.0
2014-Oct-17 20:31N 51°20' E 004°20'0 0.0
2014-Oct-17 19:31N 51°20' E 004°20'0 0.0
2014-Oct-17 18:31N 51°20' E 004°20'0 0.0
2014-Oct-17 17:31N 51°20' E 004°20'0 0.0
2014-Oct-17 16:28N 51°20' E 004°20'0 0.0
2014-Oct-17 15:31N 51°20' E 004°20'0 0.0
2014-Oct-17 14:31N 51°20' E 004°20'0 0.0
2014-Oct-17 13:31N 51°20' E 004°20'0 0.0
2014-Oct-17 12:34N 51°20' E 004°20'0 0.0
2014-Oct-17 11:33N 51°20' E 004°20'0 0.0
2014-Oct-17 10:33N 51°20' E 004°20'0 0.0
2014-Oct-17 09:24N 51°20' E 004°20'0 0.0
2014-Oct-17 08:33N 51°20' E 004°20'0 0.0
2014-Oct-17 07:30N 51°20' E 004°20'0 0.0
2014-Oct-17 06:27N 51°20' E 004°20'0 0.0
2014-Oct-17 05:33N 51°20' E 004°20'0 0.0
2014-Oct-17 04:33N 51°20' E 004°20'0 0.0
2014-Oct-17 03:33N 51°20' E 004°20'0 0.0
2014-Oct-17 02:33N 51°20' E 004°20'0 0.0
2014-Oct-17 01:33N 51°20' E 004°20'0 0.0
2014-Oct-17 00:33N 51°20' E 004°20'0 0.0
2014-Oct-16 23:33N 51°20' E 004°20'0 0.0
2014-Oct-16 22:33N 51°20' E 004°20'1 0.9
2014-Oct-16 21:33N 51°19' E 004°19'2 1.7
2014-Oct-16 20:33N 51°21' E 004°17'0 0.1
2014-Oct-16 19:33N 51°21' E 004°17'2 2.3
2014-Oct-16 18:33N 51°22' E 004°13'7 6.8
2014-Oct-16 17:33N 51°23' E 004°03'4 3.8
2014-Oct-16 16:33N 51°23' E 003°57'1111.4
2014-Oct-16 15:34N 51°26' E 003°39'9 8.7
2014-Oct-16 14:34N 51°25' E 003°26'1010.5
2014-Oct-16 13:34N 51°24' E 003°09'1312.7
2014-Oct-16 12:33N 51°37' E 003°11'8 8.2
2014-Oct-16 11:33N 51°45' E 003°11'7114.1
2014-Oct-16 06:33N 52°52' E 003°49'2019.4
2014-Oct-16 05:33N 53°05' E 004°13'2619.7
2014-Oct-16 04:12N 53°28' E 004°35'1320.1
2014-Oct-16 03:33N 53°32' E 004°56'2020.0
2014-Oct-16 02:34N 53°40' E 005°26'1919.2
2014-Oct-16 01:33N 53°45' E 005°58'6018.8
2014-Oct-15 22:23N 53°59' E 007°36'1315.4
2014-Oct-15 21:33N 53°52' E 007°55'1414.5
2014-Oct-15 20:34N 53°44' E 008°15'1413.7
2014-Oct-15 19:33N 53°35' E 008°32'0 0.2
2014-Oct-15 18:31N 53°34' E 008°32'0 0.0
2014-Oct-15 17:31N 53°34' E 008°32'0 0.0
2014-Oct-15 16:31N 53°34' E 008°32'0 0.0
2014-Oct-15 15:31N 53°34' E 008°32'0 0.0
2014-Oct-15 14:31N 53°34' E 008°32'0 0.0
2014-Oct-15 13:31N 53°34' E 008°32'0 0.0
2014-Oct-15 12:31N 53°34' E 008°32'0 0.0
2014-Oct-15 11:31N 53°34' E 008°32'0 0.0
2014-Oct-15 10:31N 53°34' E 008°32'0 0.0
2014-Oct-15 09:31N 53°34' E 008°32'0 0.0
2014-Oct-15 08:28N 53°34' E 008°32'0 0.0
2014-Oct-15 07:31N 53°34' E 008°32'0 0.0
2014-Oct-15 06:31N 53°34' E 008°32'0 0.0
2014-Oct-15 05:31N 53°34' E 008°32'0 0.0
2014-Oct-15 04:31N 53°34' E 008°32'0 0.0
2014-Oct-15 03:31N 53°34' E 008°32'0 0.0
2014-Oct-15 02:31N 53°34' E 008°32'6 6.8
2014-Oct-15 01:33N 53°39' E 008°25'1413.8
2014-Oct-15 00:34N 53°48' E 008°08'1111.2
2014-Oct-14 23:32N 53°58' E 007°56'1110.7
2014-Oct-14 22:33N 54°00' E 008°14'1616.1
2014-Oct-14 21:33N 53°56' E 008°40'1413.9
2014-Oct-14 20:33N 53°52' E 009°03'1212.3
2014-Oct-14 19:33N 53°48' E 009°23'1313.2
2014-Oct-14 18:33N 53°37' E 009°34'1010.4
2014-Oct-14 17:33N 53°33' E 009°50'3 2.6
2014-Oct-14 16:33N 53°32' E 009°54'0 0.0
2014-Oct-14 15:33N 53°32' E 009°54'0 0.0
2014-Oct-14 14:33N 53°32' E 009°54'0 0.0
2014-Oct-14 13:33N 53°32' E 009°54'0 0.0
2014-Oct-14 12:33N 53°32' E 009°54'0 0.0
2014-Oct-14 11:33N 53°32' E 009°54'0 0.0
2014-Oct-14 10:33N 53°32' E 009°54'0 0.0
2014-Oct-14 09:33N 53°32' E 009°54'0 0.0
2014-Oct-14 08:33N 53°32' E 009°54'0 0.0
2014-Oct-14 07:33N 53°32' E 009°54'0 0.0
2014-Oct-14 06:33N 53°32' E 009°54'0 0.0
2014-Oct-14 05:33N 53°32' E 009°54'0 0.0
2014-Oct-14 04:33N 53°32' E 009°54'0 0.0
2014-Oct-14 03:33N 53°32' E 009°54'0 0.0
2014-Oct-14 02:33N 53°32' E 009°54'0 0.0
2014-Oct-14 01:33N 53°32' E 009°54'0 0.0
2014-Oct-14 00:33N 53°32' E 009°54'0 0.0
2014-Oct-13 23:33N 53°32' E 009°54'0 0.0
2014-Oct-13 22:33N 53°32' E 009°54'0 0.0
2014-Oct-13 21:33N 53°32' E 009°54'0 0.1
2014-Oct-13 20:33N 53°32' E 009°54'7 7.0
2014-Oct-13 19:33N 53°34' E 009°43'10 9.9
2014-Oct-13 18:33N 53°40' E 009°30'1212.2
2014-Oct-13 17:33N 53°51' E 009°20'10 9.9
2014-Oct-13 16:33N 53°52' E 009°03'1212.0
2014-Oct-13 15:33N 53°53' E 008°43'1312.9
2014-Oct-13 14:33N 53°59' E 008°23'1111.3
2014-Oct-13 13:33N 53°59' E 008°04'1616.4
2014-Oct-13 12:33N 53°55' E 007°37'2218.4
2014-Oct-13 11:20N 53°50' E 007°00'2019.4
2014-Oct-13 10:19N 53°46' E 006°28'1520.0
2014-Oct-13 09:33N 53°41' E 006°03'2019.9
2014-Oct-13 08:33N 53°35' E 005°31'2020.3
2014-Oct-13 07:33N 53°28' E 004°59'1919.4
2014-Oct-13 06:33N 53°16' E 004°34'2121.1
2014-Oct-13 05:33N 52°57' E 004°18'2121.0
2014-Oct-13 04:33N 52°39' E 003°59'2220.6
2014-Oct-13 03:30N 52°24' E 003°34'4019.9
2014-Oct-13 01:31N 51°56' E 002°49'1818.1
2014-Oct-13 00:33N 51°51' E 002°21'1717.3
2014-Oct-12 23:33N 51°49' E 001°54'1313.3
2014-Oct-12 22:34N 51°53' E 001°34'1110.6
2014-Oct-12 21:33N 51°57' E 001°18'0 0.3
2014-Oct-12 20:31N 51°58' E 001°18'0 0.0
2014-Oct-12 19:31N 51°58' E 001°18'0 0.0
2014-Oct-12 18:31N 51°58' E 001°18'0 0.0
2014-Oct-12 17:31N 51°58' E 001°18'0 0.0
2014-Oct-12 16:31N 51°58' E 001°18'0 0.0
2014-Oct-12 15:31N 51°58' E 001°18'0 0.0
2014-Oct-12 14:31N 51°58' E 001°18'0 0.0
2014-Oct-12 13:31N 51°58' E 001°18'0 0.0
2014-Oct-12 12:31N 51°58' E 001°18'0 0.0
2014-Oct-12 11:31N 51°58' E 001°18'0 0.0
2014-Oct-12 10:31N 51°58' E 001°18'0 0.0
2014-Oct-12 09:31N 51°58' E 001°18'0 0.0
2014-Oct-12 08:31N 51°58' E 001°18'0 0.0
2014-Oct-12 07:31N 51°58' E 001°18'0 0.0
2014-Oct-12 06:34N 51°58' E 001°18'0 0.0
2014-Oct-12 05:33N 51°58' E 001°18'0 0.0
2014-Oct-12 04:33N 51°58' E 001°18'0 0.0
2014-Oct-12 03:33N 51°58' E 001°18'0 0.0
2014-Oct-12 02:33N 51°58' E 001°18'0 0.0
2014-Oct-12 01:33N 51°58' E 001°18'0 0.0
2014-Oct-12 00:33N 51°58' E 001°18'0 0.0
2014-Oct-11 23:33N 51°58' E 001°18'0 0.0
2014-Oct-11 22:33N 51°58' E 001°18'0 0.0
2014-Oct-11 21:33N 51°58' E 001°18'0 0.0
2014-Oct-11 20:33N 51°58' E 001°18'0 0.0
2014-Oct-11 19:33N 51°57' E 001°18'6 6.5
2014-Oct-11 18:33N 51°56' E 001°28'8 8.3
2014-Oct-11 17:34N 51°53' E 001°41'2 1.9
2014-Oct-11 16:33N 51°55' E 001°42'0 0.0
2014-Oct-11 15:33N 51°55' E 001°42'  
Track history (hours):
 
Tides and Currents Weather Stations Pressure Air Temp Water Temp Dewpoint Dewpoint Depression Visibility Wind Speed Wind Dir Waves Ship Positions

Sct Santiago

Last reported at 2014-Oct-21 14:33 UTC. Time now 2014-Oct-21 15:15 UTC.
Position N 37°56' W 008°51'.

Length 294 m; draft 10.9 m.

Type: Cargo ship. MMSI: 538002953.

Date/timePositionNaut miles runAvg speedWind from/ knotsBaromVisibWave heightAir tempDewpointWater temp
2014-Oct-21 14:33N 37°56' W 008°51'0 0.0
2014-Oct-21 13:33N 37°56' W 008°51'0 0.0
2014-Oct-21 12:33N 37°56' W 008°51'0 0.0
2014-Oct-21 11:33N 37°56' W 008°51'0 0.0
2014-Oct-21 10:33N 37°56' W 008°51'0 0.0
2014-Oct-21 09:33N 37°56' W 008°51'0 0.0
2014-Oct-21 08:33N 37°56' W 008°51'0 0.0
2014-Oct-21 07:33N 37°56' W 008°51'0 0.4
2014-Oct-21 06:33N 37°56' W 008°51'7 6.7
2014-Oct-21 05:33N 37°58' W 008°59'1615.7
2014-Oct-21 04:33N 38°06' W 009°15'1717.6
2014-Oct-21 03:33N 38°17' W 009°33'1717.2
2014-Oct-21 02:33N 38°27' W 009°51'1616.0
2014-Oct-21 01:33N 38°38' W 010°06'1716.5
2014-Oct-21 00:31N 38°55' W 010°07'1717.3
2014-Oct-20 23:33N 39°12' W 010°07'77716.1
2014-Oct-18 23:21N 50°19' W 000°48'1618.3
2014-Oct-18 22:30N 50°24' W 000°25'6917.5
2014-Oct-18 18:33N 50°52' E 001°14'1717.3
2014-Oct-18 17:34N 51°05' E 001°33'1717.2
2014-Oct-18 16:34N 51°17' E 001°51'1615.8
2014-Oct-18 15:33N 51°21' E 002°16'1817.9
2014-Oct-18 14:33N 51°24' E 002°44'1917.3
2014-Oct-18 13:27N 51°25' E 003°15'1416.1
2014-Oct-18 12:34N 51°26' E 003°38'1212.4
2014-Oct-18 11:33N 51°23' E 003°57'10 9.6
2014-Oct-18 10:34N 51°24' E 004°12'5 4.6
2014-Oct-18 09:34N 51°21' E 004°17'0 0.0
2014-Oct-18 08:33N 51°21' E 004°17'1 0.6
2014-Oct-18 07:32N 51°20' E 004°18'2 1.5
2014-Oct-18 06:28N 51°20' E 004°20'0 0.0
2014-Oct-18 05:31N 51°20' E 004°20'0 0.0
2014-Oct-18 04:31N 51°20' E 004°20'0 0.0
2014-Oct-18 03:25N 51°20' E 004°20'0 0.0
2014-Oct-18 02:31N 51°20' E 004°20'0 0.0
2014-Oct-18 01:31N 51°20' E 004°20'0 0.0
2014-Oct-18 00:31N 51°20' E 004°20'0 0.0
2014-Oct-17 23:31N 51°20' E 004°20'0 0.0
2014-Oct-17 22:31N 51°20' E 004°20'0 0.0
2014-Oct-17 21:31N 51°20' E 004°20'0 0.0
2014-Oct-17 20:31N 51°20' E 004°20'0 0.0
2014-Oct-17 19:31N 51°20' E 004°20'0 0.0
2014-Oct-17 18:31N 51°20' E 004°20'0 0.0
2014-Oct-17 17:31N 51°20' E 004°20'0 0.0
2014-Oct-17 16:28N 51°20' E 004°20'0 0.0
2014-Oct-17 15:31N 51°20' E 004°20'0 0.0
2014-Oct-17 14:31N 51°20' E 004°20'0 0.0
2014-Oct-17 13:31N 51°20' E 004°20'0 0.0
2014-Oct-17 12:34N 51°20' E 004°20'0 0.0
2014-Oct-17 11:33N 51°20' E 004°20'0 0.0
2014-Oct-17 10:33N 51°20' E 004°20'0 0.0
2014-Oct-17 09:24N 51°20' E 004°20'0 0.0
2014-Oct-17 08:33N 51°20' E 004°20'0 0.0
2014-Oct-17 07:30N 51°20' E 004°20'0 0.0
2014-Oct-17 06:27N 51°20' E 004°20'0 0.0
2014-Oct-17 05:33N 51°20' E 004°20'0 0.0
2014-Oct-17 04:33N 51°20' E 004°20'0 0.0
2014-Oct-17 03:33N 51°20' E 004°20'0 0.0
2014-Oct-17 02:33N 51°20' E 004°20'0 0.0
2014-Oct-17 01:33N 51°20' E 004°20'0 0.0
2014-Oct-17 00:33N 51°20' E 004°20'0 0.0
2014-Oct-16 23:33N 51°20' E 004°20'0 0.0
2014-Oct-16 22:33N 51°20' E 004°20'1 0.9
2014-Oct-16 21:33N 51°19' E 004°19'2 1.7
2014-Oct-16 20:33N 51°21' E 004°17'0 0.1
2014-Oct-16 19:33N 51°21' E 004°17'2 2.3
2014-Oct-16 18:33N 51°22' E 004°13'7 6.8
2014-Oct-16 17:33N 51°23' E 004°03'4 3.8
2014-Oct-16 16:33N 51°23' E 003°57'1111.4
2014-Oct-16 15:34N 51°26' E 003°39'9 8.7
2014-Oct-16 14:34N 51°25' E 003°26'1010.5
2014-Oct-16 13:34N 51°24' E 003°09'1312.7
2014-Oct-16 12:33N 51°37' E 003°11'8 8.2
2014-Oct-16 11:33N 51°45' E 003°11'7114.1
2014-Oct-16 06:33N 52°52' E 003°49'2019.4
2014-Oct-16 05:33N 53°05' E 004°13'2619.7
2014-Oct-16 04:12N 53°28' E 004°35'1320.1
2014-Oct-16 03:33N 53°32' E 004°56'2020.0
2014-Oct-16 02:34N 53°40' E 005°26'1919.2
2014-Oct-16 01:33N 53°45' E 005°58'6018.8
2014-Oct-15 22:23N 53°59' E 007°36'1315.4
2014-Oct-15 21:33N 53°52' E 007°55'1414.5
2014-Oct-15 20:34N 53°44' E 008°15'1413.7
2014-Oct-15 19:33N 53°35' E 008°32'0 0.2
2014-Oct-15 18:31N 53°34' E 008°32'0 0.0
2014-Oct-15 17:31N 53°34' E 008°32'0 0.0
2014-Oct-15 16:31N 53°34' E 008°32'0 0.0
2014-Oct-15 15:31N 53°34' E 008°32'0 0.0
2014-Oct-15 14:31N 53°34' E 008°32'0 0.0
2014-Oct-15 13:31N 53°34' E 008°32'0 0.0
2014-Oct-15 12:31N 53°34' E 008°32'0 0.0
2014-Oct-15 11:31N 53°34' E 008°32'0 0.0
2014-Oct-15 10:31N 53°34' E 008°32'0 0.0
2014-Oct-15 09:31N 53°34' E 008°32'0 0.0
2014-Oct-15 08:28N 53°34' E 008°32'0 0.0
2014-Oct-15 07:31N 53°34' E 008°32'0 0.0
2014-Oct-15 06:31N 53°34' E 008°32'0 0.0
2014-Oct-15 05:31N 53°34' E 008°32'0 0.0
2014-Oct-15 04:31N 53°34' E 008°32'0 0.0
2014-Oct-15 03:31N 53°34' E 008°32'0 0.0
2014-Oct-15 02:31N 53°34' E 008°32'6 6.8
2014-Oct-15 01:33N 53°39' E 008°25'1413.8
2014-Oct-15 00:34N 53°48' E 008°08'1111.2
2014-Oct-14 23:32N 53°58' E 007°56'1110.7
2014-Oct-14 22:33N 54°00' E 008°14'1616.1
2014-Oct-14 21:33N 53°56' E 008°40'1413.9
2014-Oct-14 20:33N 53°52' E 009°03'1212.3
2014-Oct-14 19:33N 53°48' E 009°23'1313.2
2014-Oct-14 18:33N 53°37' E 009°34'1010.4
2014-Oct-14 17:33N 53°33' E 009°50'3 2.6
2014-Oct-14 16:33N 53°32' E 009°54'0 0.0
2014-Oct-14 15:33N 53°32' E 009°54'0 0.0
2014-Oct-14 14:33N 53°32' E 009°54'0 0.0
2014-Oct-14 13:33N 53°32' E 009°54'0 0.0
2014-Oct-14 12:33N 53°32' E 009°54'0 0.0
2014-Oct-14 11:33N 53°32' E 009°54'0 0.0
2014-Oct-14 10:33N 53°32' E 009°54'0 0.0
2014-Oct-14 09:33N 53°32' E 009°54'0 0.0
2014-Oct-14 08:33N 53°32' E 009°54'0 0.0
2014-Oct-14 07:33N 53°32' E 009°54'0 0.0
2014-Oct-14 06:33N 53°32' E 009°54'0 0.0
2014-Oct-14 05:33N 53°32' E 009°54'0 0.0
2014-Oct-14 04:33N 53°32' E 009°54'0 0.0
2014-Oct-14 03:33N 53°32' E 009°54'0 0.0
2014-Oct-14 02:33N 53°32' E 009°54'0 0.0
2014-Oct-14 01:33N 53°32' E 009°54'0 0.0
2014-Oct-14 00:33N 53°32' E 009°54'0 0.0
2014-Oct-13 23:33N 53°32' E 009°54'0 0.0
2014-Oct-13 22:33N 53°32' E 009°54'0 0.0
2014-Oct-13 21:33N 53°32' E 009°54'0 0.1
2014-Oct-13 20:33N 53°32' E 009°54'7 7.0
2014-Oct-13 19:33N 53°34' E 009°43'10 9.9
2014-Oct-13 18:33N 53°40' E 009°30'1212.2
2014-Oct-13 17:33N 53°51' E 009°20'10 9.9
2014-Oct-13 16:33N 53°52' E 009°03'1212.0
2014-Oct-13 15:33N 53°53' E 008°43'1312.9
2014-Oct-13 14:33N 53°59' E 008°23'1111.3
2014-Oct-13 13:33N 53°59' E 008°04'1616.4
2014-Oct-13 12:33N 53°55' E 007°37'2218.4
2014-Oct-13 11:20N 53°50' E 007°00'2019.4
2014-Oct-13 10:19N 53°46' E 006°28'1520.0
2014-Oct-13 09:33N 53°41' E 006°03'2019.9
2014-Oct-13 08:33N 53°35' E 005°31'2020.3
2014-Oct-13 07:33N 53°28' E 004°59'1919.4
2014-Oct-13 06:33N 53°16' E 004°34'2121.1
2014-Oct-13 05:33N 52°57' E 004°18'2121.0
2014-Oct-13 04:33N 52°39' E 003°59'2220.6
2014-Oct-13 03:30N 52°24' E 003°34'4019.9
2014-Oct-13 01:31N 51°56' E 002°49'1818.1
2014-Oct-13 00:33N 51°51' E 002°21'1717.3
2014-Oct-12 23:33N 51°49' E 001°54'1313.3
2014-Oct-12 22:34N 51°53' E 001°34'1110.6
2014-Oct-12 21:33N 51°57' E 001°18'0 0.3
2014-Oct-12 20:31N 51°58' E 001°18'0 0.0
2014-Oct-12 19:31N 51°58' E 001°18'0 0.0
2014-Oct-12 18:31N 51°58' E 001°18'0 0.0
2014-Oct-12 17:31N 51°58' E 001°18'0 0.0
2014-Oct-12 16:31N 51°58' E 001°18'0 0.0
2014-Oct-12 15:31N 51°58' E 001°18'0 0.0
2014-Oct-12 14:31N 51°58' E 001°18'0 0.0
2014-Oct-12 13:31N 51°58' E 001°18'0 0.0
2014-Oct-12 12:31N 51°58' E 001°18'0 0.0
2014-Oct-12 11:31N 51°58' E 001°18'0 0.0
2014-Oct-12 10:31N 51°58' E 001°18'0 0.0
2014-Oct-12 09:31N 51°58' E 001°18'0 0.0
2014-Oct-12 08:31N 51°58' E 001°18'0 0.0
2014-Oct-12 07:31N 51°58' E 001°18'0 0.0
2014-Oct-12 06:34N 51°58' E 001°18'0 0.0
2014-Oct-12 05:33N 51°58' E 001°18'0 0.0
2014-Oct-12 04:33N 51°58' E 001°18'0 0.0
2014-Oct-12 03:33N 51°58' E 001°18'0 0.0
2014-Oct-12 02:33N 51°58' E 001°18'0 0.0
2014-Oct-12 01:33N 51°58' E 001°18'0 0.0
2014-Oct-12 00:33N 51°58' E 001°18'0 0.0
2014-Oct-11 23:33N 51°58' E 001°18'0 0.0
2014-Oct-11 22:33N 51°58' E 001°18'0 0.0
2014-Oct-11 21:33N 51°58' E 001°18'0 0.0
2014-Oct-11 20:33N 51°58' E 001°18'0 0.0
2014-Oct-11 19:33N 51°57' E 001°18'6 6.5
2014-Oct-11 18:33N 51°56' E 001°28'8 8.3
2014-Oct-11 17:34N 51°53' E 001°41'2 1.9
2014-Oct-11 16:33N 51°55' E 001°42'0 0.0
2014-Oct-11 15:33N 51°55' E 001°42'  

Dump ship's entire track history